createdAt,value
2023-03-29T00:00:25.470Z,9.681017
2023-03-29T00:01:34.955Z,9.681024
2023-03-29T00:02:26.615Z,9.681007
2023-03-29T00:03:25.533Z,9.681072
2023-03-29T00:04:25.497Z,9.681072
2023-03-29T00:05:25.420Z,9.681115
2023-03-29T00:06:25.456Z,9.681029
2023-03-29T00:07:25.429Z,9.681023
2023-03-29T00:08:25.426Z,9.681089
2023-03-29T00:09:25.403Z,9.681022
2023-03-29T00:10:25.413Z,9.681014
2023-03-29T00:11:25.421Z,9.681019
2023-03-29T00:12:25.426Z,9.681051
2023-03-29T00:13:25.382Z,9.681074
2023-03-29T00:14:25.399Z,9.681044
2023-03-29T00:15:25.378Z,9.681025
2023-03-29T00:16:25.454Z,9.681046
2023-03-29T00:17:25.437Z,9.681049
2023-03-29T00:18:25.370Z,9.681111
2023-03-29T00:19:25.374Z,9.681027
2023-03-29T00:20:25.367Z,9.681049
2023-03-29T00:21:25.355Z,9.681016
2023-03-29T00:22:25.357Z,9.681033
2023-03-29T00:23:25.339Z,9.680949
2023-03-29T00:24:25.357Z,9.681024
2023-03-29T00:25:25.363Z,9.680984
2023-03-29T00:26:25.341Z,9.681052
2023-03-29T00:27:25.315Z,9.681110
2023-03-29T00:28:25.314Z,9.680988
2023-03-29T00:29:25.306Z,9.681023
2023-03-29T00:30:25.322Z,9.681078
2023-03-29T00:31:25.296Z,9.681105
2023-03-29T00:32:25.319Z,9.681066
2023-03-29T00:33:25.269Z,9.681113
2023-03-29T00:34:25.288Z,9.681057
2023-03-29T00:35:25.365Z,9.681121
2023-03-29T00:36:25.290Z,9.681136
2023-03-29T00:37:25.253Z,9.681078
2023-03-29T00:38:25.267Z,9.681087
2023-03-29T00:39:25.241Z,9.681086
2023-03-29T00:40:25.272Z,9.681078
2023-03-29T00:41:25.284Z,9.681102
2023-03-29T00:42:25.247Z,9.681086
2023-03-29T00:43:25.237Z,9.681079
2023-03-29T00:44:25.242Z,9.681105
2023-03-29T00:45:25.232Z,9.681095
2023-03-29T00:46:25.312Z,9.681097
2023-03-29T00:47:25.217Z,9.681083
2023-03-29T00:48:25.210Z,9.681046
2023-03-29T00:49:25.188Z,9.681062
2023-03-29T00:50:25.213Z,9.681086
2023-03-29T00:51:25.199Z,9.681054
2023-03-29T00:52:25.196Z,9.681041
2023-03-29T00:53:25.162Z,9.681039
2023-03-29T00:54:25.166Z,9.681026
2023-03-29T00:55:25.209Z,9.681082
2023-03-29T00:56:25.161Z,9.681067
2023-03-29T00:57:27.271Z,9.681090
2023-03-29T00:58:25.200Z,9.681083
2023-03-29T00:59:25.170Z,9.681050
2023-03-29T01:00:25.149Z,9.681049
2023-03-29T01:01:25.162Z,9.681089
2023-03-29T01:02:25.155Z,9.681123
2023-03-29T01:03:25.289Z,9.681043
2023-03-29T01:04:25.136Z,9.681066
2023-03-29T01:05:25.108Z,9.681071
2023-03-29T01:06:25.157Z,9.681138
2023-03-29T01:07:25.095Z,9.681067
2023-03-29T01:08:25.133Z,9.681117
2023-03-29T01:09:25.098Z,9.681159
2023-03-29T01:10:25.109Z,9.681108
2023-03-29T01:11:25.100Z,9.681154
2023-03-29T01:12:25.115Z,9.681065
2023-03-29T01:13:25.083Z,9.681020
2023-03-29T01:14:25.084Z,9.681171
2023-03-29T01:15:25.084Z,9.681129
2023-03-29T01:16:25.109Z,9.681248
2023-03-29T01:17:25.095Z,9.681203
2023-03-29T01:18:25.069Z,9.681088
2023-03-29T01:19:25.035Z,9.681076
2023-03-29T01:20:25.045Z,9.681087
2023-03-29T01:21:25.067Z,9.681065
2023-03-29T01:22:25.057Z,9.681009
2023-03-29T01:23:25.042Z,9.681061
2023-03-29T01:24:25.053Z,9.681070
2023-03-29T01:25:25.044Z,9.681025
2023-03-29T01:26:25.020Z,9.681049
2023-03-29T01:27:25.019Z,9.681135
2023-03-29T01:28:25.011Z,9.681127
2023-03-29T01:29:25.001Z,9.681072
2023-03-29T01:30:25.047Z,9.681109
2023-03-29T01:31:25.025Z,9.681036
2023-03-29T01:32:25.015Z,9.681102
2023-03-29T01:33:24.963Z,9.681070
2023-03-29T01:34:24.975Z,9.680996
2023-03-29T01:35:24.951Z,9.681043
2023-03-29T01:36:24.992Z,9.680977
2023-03-29T01:37:24.999Z,9.681092
2023-03-29T01:38:24.957Z,9.681086
2023-03-29T01:39:24.938Z,9.681089
2023-03-29T01:40:24.970Z,9.681060
2023-03-29T01:41:24.957Z,9.681118
2023-03-29T01:42:25.063Z,9.681117
2023-03-29T01:43:24.928Z,9.681098
2023-03-29T01:44:24.915Z,9.681134
2023-03-29T01:45:24.905Z,9.681081
2023-03-29T01:46:24.984Z,9.681078
2023-03-29T01:47:24.925Z,9.681106
2023-03-29T01:48:24.906Z,9.681016
2023-03-29T01:49:24.898Z,9.681033
2023-03-29T01:50:24.887Z,9.681097
2023-03-29T01:51:24.855Z,9.681086
2023-03-29T01:52:24.867Z,9.681063
2023-03-29T01:53:24.877Z,9.681087
2023-03-29T01:54:24.867Z,9.681043
2023-03-29T01:55:24.878Z,9.680997
2023-03-29T01:56:24.858Z,9.680975
2023-03-29T01:57:24.934Z,9.681067
2023-03-29T01:58:24.837Z,9.681019
2023-03-29T01:59:24.868Z,9.681045
2023-03-29T02:00:24.897Z,9.681070
2023-03-29T02:01:24.834Z,9.681017
2023-03-29T02:02:24.880Z,9.681034
2023-03-29T02:03:24.924Z,9.681059
2023-03-29T02:04:24.809Z,9.681047
2023-03-29T02:05:24.810Z,9.681009
2023-03-29T02:06:24.801Z,9.681007
2023-03-29T02:07:24.793Z,9.681004
2023-03-29T02:08:24.795Z,9.680981
2023-03-29T02:09:24.760Z,9.681000
2023-03-29T02:10:24.768Z,9.681034
2023-03-29T02:11:24.769Z,9.680978
2023-03-29T02:12:24.775Z,9.681068
2023-03-29T02:13:24.742Z,9.681066
2023-03-29T02:14:24.749Z,9.681009
2023-03-29T02:15:24.790Z,9.681087
2023-03-29T02:16:24.773Z,9.681113
2023-03-29T02:17:24.829Z,9.681093
2023-03-29T02:18:24.767Z,9.681101
2023-03-29T02:19:24.702Z,9.681089
2023-03-29T02:20:24.718Z,9.681097
2023-03-29T02:21:24.698Z,9.681073
2023-03-29T02:22:24.722Z,9.681069
2023-03-29T02:23:24.682Z,9.681052
2023-03-29T02:24:24.702Z,9.681059
2023-03-29T02:25:24.660Z,9.680986
2023-03-29T02:26:24.672Z,9.681015
2023-03-29T02:27:24.644Z,9.681052
2023-03-29T02:28:24.730Z,9.681029
2023-03-29T02:29:24.667Z,9.681053
2023-03-29T02:30:24.675Z,9.681044
2023-03-29T02:31:24.744Z,9.681023
2023-03-29T02:32:24.714Z,9.681019
2023-03-29T02:33:24.721Z,9.681037
2023-03-29T02:34:24.662Z,9.681029
2023-03-29T02:35:24.625Z,9.681035
2023-03-29T02:36:24.629Z,9.681017
2023-03-29T02:37:24.628Z,9.681014
2023-03-29T02:38:24.653Z,9.681020
2023-03-29T02:39:24.591Z,9.681046
2023-03-29T02:40:24.611Z,9.681042
2023-03-29T02:41:24.575Z,9.681039
2023-03-29T02:42:24.586Z,9.681053
2023-03-29T02:43:25.897Z,9.681055
2023-03-29T02:44:24.601Z,9.681050
2023-03-29T02:45:24.583Z,9.681025
2023-03-29T02:46:24.593Z,9.681088
2023-03-29T02:47:24.574Z,9.681086
2023-03-29T02:48:24.547Z,9.681061
2023-03-29T02:49:24.539Z,9.681115
2023-03-29T02:50:24.534Z,9.681090
2023-03-29T02:51:24.546Z,9.681073
2023-03-29T02:52:24.532Z,9.680951
2023-03-29T02:53:24.504Z,9.681031
2023-03-29T02:54:24.503Z,9.680982
2023-03-29T02:55:24.526Z,9.680982
2023-03-29T02:56:24.497Z,9.681112
2023-03-29T02:57:24.524Z,9.681124
2023-03-29T02:58:24.501Z,9.681067
2023-03-29T02:59:24.478Z,9.681100
2023-03-29T03:00:24.469Z,9.681103
2023-03-29T03:01:24.532Z,9.681139
2023-03-29T03:02:24.511Z,9.681091
2023-03-29T03:03:24.514Z,9.681144
2023-03-29T03:04:24.447Z,9.681088
2023-03-29T03:05:24.463Z,9.681047
2023-03-29T03:06:24.485Z,9.681091
2023-03-29T03:07:24.431Z,9.681050
2023-03-29T03:08:24.459Z,9.681087
2023-03-29T03:09:24.426Z,9.681086
2023-03-29T03:10:24.434Z,9.681065
2023-03-29T03:11:24.420Z,9.681064
2023-03-29T03:12:24.428Z,9.681059
2023-03-29T03:13:24.385Z,9.681067
2023-03-29T03:14:24.440Z,9.681055
2023-03-29T03:15:24.380Z,9.681077
2023-03-29T03:16:24.418Z,9.681078
2023-03-29T03:17:24.427Z,9.681100
2023-03-29T03:18:24.388Z,9.681125
2023-03-29T03:19:24.379Z,9.681086
2023-03-29T03:20:24.378Z,9.681052
2023-03-29T03:21:24.346Z,9.681043
2023-03-29T03:22:24.372Z,9.681044
2023-03-29T03:23:24.328Z,9.681025
2023-03-29T03:24:24.325Z,9.681011
2023-03-29T03:25:24.316Z,9.681009
2023-03-29T03:26:24.326Z,9.681007
2023-03-29T03:27:24.320Z,9.681065
2023-03-29T03:28:24.373Z,9.681084
2023-03-29T03:29:24.282Z,9.681081
2023-03-29T03:30:24.293Z,9.681120
2023-03-29T03:31:24.305Z,9.681049
2023-03-29T03:32:24.367Z,9.681128
2023-03-29T03:33:24.267Z,9.681067
2023-03-29T03:34:24.309Z,9.681078
2023-03-29T03:35:24.247Z,9.681107
2023-03-29T03:36:24.255Z,9.681133
2023-03-29T03:37:24.236Z,9.681072
2023-03-29T03:38:24.291Z,9.681016
2023-03-29T03:39:24.221Z,9.681089
2023-03-29T03:40:25.583Z,9.681107
2023-03-29T03:41:24.230Z,9.681081
2023-03-29T03:42:24.225Z,9.681089
2023-03-29T03:43:24.218Z,9.681094
2023-03-29T03:44:24.260Z,9.681102
2023-03-29T03:45:24.192Z,9.681099
2023-03-29T03:46:24.216Z,9.681052
2023-03-29T03:47:24.182Z,9.681007
2023-03-29T03:48:24.189Z,9.681087
2023-03-29T03:49:24.225Z,9.681106
2023-03-29T03:50:24.201Z,9.680985
2023-03-29T03:51:24.170Z,9.681156
2023-03-29T03:52:24.185Z,9.681045
2023-03-29T03:53:24.149Z,9.681099
2023-03-29T03:54:24.149Z,9.681139
2023-03-29T03:55:24.134Z,9.681103
2023-03-29T03:56:24.171Z,9.681140
2023-03-29T03:57:24.167Z,9.681087
2023-03-29T03:58:24.120Z,9.681136
2023-03-29T03:59:24.124Z,9.681155
2023-03-29T04:00:24.123Z,9.681195
2023-03-29T04:01:24.131Z,9.681220
2023-03-29T04:02:24.141Z,9.681192
2023-03-29T04:03:24.200Z,9.681132
2023-03-29T04:04:24.187Z,9.681172
2023-03-29T04:05:24.082Z,9.681244
2023-03-29T04:06:24.074Z,9.681156
2023-03-29T04:07:24.081Z,9.681062
2023-03-29T04:08:24.076Z,9.681157
2023-03-29T04:09:24.040Z,9.681217
2023-03-29T04:10:24.063Z,9.681222
2023-03-29T04:11:24.067Z,9.681185
2023-03-29T04:12:24.062Z,9.681249
2023-03-29T04:13:24.015Z,9.681273
2023-03-29T04:14:24.046Z,9.681176
2023-03-29T04:15:24.050Z,9.681099
2023-03-29T04:16:24.114Z,9.681227
2023-03-29T04:17:24.031Z,9.681175
2023-03-29T04:18:24.101Z,9.681098
2023-03-29T04:19:24.008Z,9.681113
2023-03-29T04:20:24.004Z,9.681157
2023-03-29T04:21:24.011Z,9.681137
2023-03-29T04:22:23.998Z,9.681197
2023-03-29T04:23:23.960Z,9.681099
2023-03-29T04:24:23.984Z,9.681089
2023-03-29T04:25:23.956Z,9.681038
2023-03-29T04:26:23.956Z,9.681061
2023-03-29T04:27:23.959Z,9.681255
2023-03-29T04:28:23.947Z,9.681256
2023-03-29T04:29:23.931Z,9.681191
2023-03-29T04:30:23.975Z,9.681143
2023-03-29T04:31:23.992Z,9.681139
2023-03-29T04:32:23.946Z,9.681153
2023-03-29T04:33:23.936Z,9.681129
2023-03-29T04:34:23.918Z,9.681029
2023-03-29T04:35:23.894Z,9.681104
2023-03-29T04:36:23.960Z,9.681152
2023-03-29T04:37:23.930Z,9.681092
2023-03-29T04:38:23.898Z,9.681187
2023-03-29T04:39:23.874Z,9.681108
2023-03-29T04:40:23.897Z,9.680977
2023-03-29T04:41:23.863Z,9.681046
2023-03-29T04:42:23.889Z,9.680925
2023-03-29T04:43:23.884Z,9.681001
2023-03-29T04:44:23.870Z,9.681092
2023-03-29T04:45:23.889Z,9.681070
2023-03-29T04:46:23.912Z,9.681055
2023-03-29T04:47:23.895Z,9.681074
2023-03-29T04:48:23.872Z,9.681058
2023-03-29T04:49:26.026Z,9.680998
2023-03-29T04:50:23.842Z,9.681089
2023-03-29T04:51:23.818Z,9.681076
2023-03-29T04:52:24.596Z,9.681121
2023-03-29T04:53:23.834Z,9.681105
2023-03-29T04:54:23.848Z,9.681165
2023-03-29T04:55:23.821Z,9.681133
2023-03-29T04:56:23.824Z,9.681095
2023-03-29T04:57:23.888Z,9.681045
2023-03-29T04:58:27.150Z,9.681074
2023-03-29T04:59:24.774Z,9.681068
2023-03-29T05:00:23.790Z,9.681044
2023-03-29T05:01:23.847Z,9.681046
2023-03-29T05:02:23.816Z,9.681071
2023-03-29T05:03:23.755Z,9.681084
2023-03-29T05:04:23.839Z,9.681083
2023-03-29T05:05:23.774Z,9.681126
2023-03-29T05:06:23.751Z,9.681189
2023-03-29T05:07:23.745Z,9.681196
2023-03-29T05:08:23.780Z,9.681067
2023-03-29T05:09:23.712Z,9.681021
2023-03-29T05:10:23.755Z,9.680987
2023-03-29T05:11:23.713Z,9.680931
2023-03-29T05:12:23.755Z,9.681044
2023-03-29T05:13:23.704Z,9.681048
2023-03-29T05:14:23.717Z,9.680991
2023-03-29T05:15:23.756Z,9.681043
2023-03-29T05:16:23.718Z,9.681025
2023-03-29T05:17:23.736Z,9.681072
2023-03-29T05:18:23.687Z,9.681035
2023-03-29T05:19:23.669Z,9.681042
2023-03-29T05:20:23.706Z,9.680994
2023-03-29T05:21:23.652Z,9.680976
2023-03-29T05:22:23.673Z,9.681047
2023-03-29T05:23:23.668Z,9.681045
2023-03-29T05:24:23.672Z,9.681093
2023-03-29T05:25:23.656Z,9.681058
2023-03-29T05:26:23.679Z,9.680994
2023-03-29T05:27:23.627Z,9.681016
2023-03-29T05:28:23.645Z,9.681032
2023-03-29T05:29:23.619Z,9.681077
2023-03-29T05:30:23.632Z,9.681082
2023-03-29T05:31:23.621Z,9.681048
2023-03-29T05:32:23.651Z,9.681070
2023-03-29T05:33:23.611Z,9.681001
2023-03-29T05:34:23.593Z,9.681038
2023-03-29T05:35:23.606Z,9.681057
2023-03-29T05:36:23.657Z,9.681033
2023-03-29T05:37:23.565Z,9.681008
2023-03-29T05:38:23.564Z,9.681044
2023-03-29T05:39:23.586Z,9.681075
2023-03-29T05:40:23.634Z,9.681068
2023-03-29T05:41:23.531Z,9.681108
2023-03-29T05:42:23.563Z,9.681077
2023-03-29T05:43:23.523Z,9.681129
2023-03-29T05:44:30.559Z,9.681084
2023-03-29T05:45:23.527Z,9.681074
2023-03-29T05:46:23.608Z,9.681064
2023-03-29T05:47:23.530Z,9.681051
2023-03-29T05:48:23.550Z,9.681071
2023-03-29T05:49:23.518Z,9.681107
2023-03-29T05:50:23.547Z,9.681087
2023-03-29T05:51:23.473Z,9.681046
2023-03-29T05:52:23.539Z,9.681143
2023-03-29T05:53:23.477Z,9.681107
2023-03-29T05:54:23.487Z,9.681086
2023-03-29T05:55:23.444Z,9.681095
2023-03-29T05:56:23.477Z,9.681070
2023-03-29T05:57:24.267Z,9.681044
2023-03-29T05:58:23.488Z,9.680983
2023-03-29T05:59:23.462Z,9.681079
2023-03-29T06:00:23.500Z,9.681080
2023-03-29T06:01:23.432Z,9.681084
2023-03-29T06:02:23.556Z,9.681067
2023-03-29T06:03:23.626Z,9.681110
2023-03-29T06:04:23.686Z,9.681092
2023-03-29T06:05:23.383Z,9.681066
2023-03-29T06:06:23.444Z,9.681067
2023-03-29T06:07:23.417Z,9.681057
2023-03-29T06:08:23.542Z,9.681062
2023-03-29T06:09:23.362Z,9.681081
2023-03-29T06:10:23.388Z,9.681095
2023-03-29T06:11:23.505Z,9.681058
2023-03-29T06:12:23.409Z,9.681084
2023-03-29T06:13:23.345Z,9.681048
2023-03-29T06:14:23.464Z,9.681015
2023-03-29T06:15:23.356Z,9.681024
2023-03-29T06:16:23.380Z,9.681042
2023-03-29T06:17:23.467Z,9.681051
2023-03-29T06:18:23.375Z,9.681026
2023-03-29T06:19:23.331Z,9.681061
2023-03-29T06:20:23.383Z,9.681065
2023-03-29T06:21:23.289Z,9.681083
2023-03-29T06:22:23.327Z,9.681073
2023-03-29T06:23:23.304Z,9.681074
2023-03-29T06:24:23.388Z,9.681076
2023-03-29T06:25:23.278Z,9.681045
2023-03-29T06:26:24.096Z,9.681026
2023-03-29T06:27:23.297Z,9.681041
2023-03-29T06:28:23.303Z,9.681045
2023-03-29T06:29:23.257Z,9.680989
2023-03-29T06:30:23.329Z,9.680985
2023-03-29T06:31:23.338Z,9.681041
2023-03-29T06:32:23.350Z,9.681068
2023-03-29T06:33:23.251Z,9.681071
2023-03-29T06:34:23.450Z,9.681068
2023-03-29T06:35:23.234Z,9.681074
2023-03-29T06:36:23.241Z,9.681083
2023-03-29T06:37:23.295Z,9.681034
2023-03-29T06:38:23.289Z,9.681055
2023-03-29T06:39:23.235Z,9.681032
2023-03-29T06:40:23.238Z,9.681011
2023-03-29T06:41:23.271Z,9.681020
2023-03-29T06:42:23.227Z,9.681015
2023-03-29T06:43:23.267Z,9.680996
2023-03-29T06:44:23.272Z,9.681011
2023-03-29T06:45:24.753Z,9.681012
2023-03-29T06:46:23.281Z,9.680997
2023-03-29T06:47:23.212Z,9.681019
2023-03-29T06:48:23.191Z,9.681009
2023-03-29T06:49:23.213Z,9.681022
2023-03-29T06:50:23.256Z,9.681010
2023-03-29T06:51:23.523Z,9.681004
2023-03-29T06:52:23.198Z,9.681054
2023-03-29T06:53:23.148Z,9.681062
2023-03-29T06:54:23.142Z,9.681033
2023-03-29T06:55:23.121Z,9.681045
2023-03-29T06:56:23.192Z,9.681034
2023-03-29T06:57:23.398Z,9.681012
2023-03-29T06:58:23.138Z,9.681032
2023-03-29T06:59:23.157Z,9.681012
2023-03-29T07:00:23.130Z,9.680945
2023-03-29T07:01:23.119Z,9.681000
2023-03-29T07:02:23.293Z,9.680949
2023-03-29T07:03:23.072Z,9.681029
2023-03-29T07:04:23.157Z,9.681024
2023-03-29T07:05:23.053Z,9.681023
2023-03-29T07:06:23.101Z,9.681026
2023-03-29T07:07:23.051Z,9.681059
2023-03-29T07:08:23.201Z,9.681006
2023-03-29T07:09:23.074Z,9.680975
2023-03-29T07:10:23.114Z,9.681003
2023-03-29T07:11:23.276Z,9.681023
2023-03-29T07:12:23.119Z,9.681024
2023-03-29T07:13:23.090Z,9.681031
2023-03-29T07:14:23.073Z,9.681009
2023-03-29T07:15:23.053Z,9.681010
2023-03-29T07:16:23.069Z,9.681009
2023-03-29T07:17:23.096Z,9.681056
2023-03-29T07:18:23.020Z,9.681018
2023-03-29T07:19:23.011Z,9.681005
2023-03-29T07:20:23.071Z,9.681021
2023-03-29T07:21:23.007Z,9.680962
2023-03-29T07:22:23.026Z,9.680994
2023-03-29T07:23:22.964Z,9.681005
2023-03-29T07:24:23.023Z,9.681022
2023-03-29T07:25:22.961Z,9.681020
2023-03-29T07:26:28.311Z,9.681030
2023-03-29T07:27:23.963Z,9.681059
2023-03-29T07:28:22.996Z,9.680973
2023-03-29T07:29:23.044Z,9.681017
2023-03-29T07:30:22.983Z,9.680998
2023-03-29T07:31:22.921Z,9.681045
2023-03-29T07:32:22.989Z,9.681013
2023-03-29T07:33:23.010Z,9.681006
2023-03-29T07:34:22.941Z,9.680912
2023-03-29T07:35:22.980Z,9.680962
2023-03-29T07:36:23.004Z,9.680959
2023-03-29T07:37:22.887Z,9.680945
2023-03-29T07:38:22.954Z,9.680968
2023-03-29T07:39:22.876Z,9.680959
2023-03-29T07:40:22.967Z,9.680955
2023-03-29T07:41:22.911Z,9.680986
2023-03-29T07:42:22.895Z,9.680965
2023-03-29T07:43:23.067Z,9.680973
2023-03-29T07:44:22.868Z,9.680987
2023-03-29T07:45:26.805Z,9.680978
2023-03-29T07:46:24.030Z,9.680998
2023-03-29T07:47:22.844Z,9.681018
2023-03-29T07:48:22.882Z,9.680979
2023-03-29T07:49:22.852Z,9.680972
2023-03-29T07:50:22.834Z,9.680961
2023-03-29T07:51:22.840Z,9.681003
2023-03-29T07:52:22.857Z,9.680979
2023-03-29T07:53:22.852Z,9.680934
2023-03-29T07:54:22.817Z,9.680966
2023-03-29T07:55:22.809Z,9.680961
2023-03-29T07:56:22.820Z,9.680949
2023-03-29T07:57:22.857Z,9.681031
2023-03-29T07:58:22.803Z,9.681059
2023-03-29T07:59:22.784Z,9.680995
2023-03-29T08:00:22.873Z,9.681036
2023-03-29T08:01:22.826Z,9.681039
2023-03-29T08:02:22.809Z,9.681021
2023-03-29T08:03:22.925Z,9.680984
2023-03-29T08:04:22.925Z,9.681046
2023-03-29T08:05:37.887Z,9.681049
2023-03-29T08:06:23.745Z,9.681011
2023-03-29T08:07:22.737Z,9.681032
2023-03-29T08:08:22.767Z,9.681034
2023-03-29T08:09:22.715Z,9.681044
2023-03-29T08:10:22.806Z,9.680985
2023-03-29T08:11:22.700Z,9.680980
2023-03-29T08:12:24.550Z,9.681018
2023-03-29T08:13:22.718Z,9.681026
2023-03-29T08:14:22.725Z,9.681040
2023-03-29T08:15:22.683Z,9.681017
2023-03-29T08:16:22.773Z,9.680994
2023-03-29T08:17:22.668Z,9.680989
2023-03-29T08:18:22.699Z,9.681059
2023-03-29T08:19:22.659Z,9.681039
2023-03-29T08:20:22.665Z,9.680996
2023-03-29T08:21:22.626Z,9.681026
2023-03-29T08:22:22.653Z,9.681051
2023-03-29T08:23:22.635Z,9.681082
2023-03-29T08:24:22.667Z,9.681043
2023-03-29T08:25:22.637Z,9.681050
2023-03-29T08:26:22.621Z,9.681046
2023-03-29T08:27:22.613Z,9.681051
2023-03-29T08:28:22.624Z,9.681023
2023-03-29T08:29:22.572Z,9.681029
2023-03-29T08:30:22.616Z,9.681092
2023-03-29T08:31:22.618Z,9.681037
2023-03-29T08:32:22.596Z,9.681017
2023-03-29T08:33:22.588Z,9.681046
2023-03-29T08:34:22.558Z,9.681052
2023-03-29T08:35:22.558Z,9.680977
2023-03-29T08:36:22.603Z,9.681041
2023-03-29T08:37:22.517Z,9.681037
2023-03-29T08:38:22.532Z,9.681009
2023-03-29T08:39:22.512Z,9.681006
2023-03-29T08:40:22.529Z,9.681041
2023-03-29T08:41:22.496Z,9.681019
2023-03-29T08:42:22.538Z,9.681058
2023-03-29T08:43:22.475Z,9.681009
2023-03-29T08:44:22.495Z,9.680935
2023-03-29T08:45:22.454Z,9.680977
2023-03-29T08:46:22.539Z,9.681005
2023-03-29T08:47:22.520Z,9.681057
2023-03-29T08:48:22.515Z,9.681046
2023-03-29T08:49:22.462Z,9.681035
2023-03-29T08:50:22.456Z,9.681075
2023-03-29T08:51:22.416Z,9.681016
2023-03-29T08:52:22.429Z,9.680993
2023-03-29T08:53:22.408Z,9.680966
2023-03-29T08:54:22.439Z,9.681003
2023-03-29T08:55:22.409Z,9.681025
2023-03-29T08:56:22.402Z,9.681029
2023-03-29T08:57:22.554Z,9.681029
2023-03-29T08:58:22.394Z,9.681039
2023-03-29T08:59:22.374Z,9.681054
2023-03-29T09:00:22.379Z,9.681023
2023-03-29T09:01:22.377Z,9.681023
2023-03-29T09:02:22.437Z,9.681042
2023-03-29T09:03:22.497Z,9.681033
2023-03-29T09:04:22.381Z,9.680980
2023-03-29T09:05:22.337Z,9.680987
2023-03-29T09:06:22.393Z,9.680994
2023-03-29T09:07:24.632Z,9.680988
2023-03-29T09:08:22.369Z,9.680975
2023-03-29T09:09:22.334Z,9.680999
2023-03-29T09:10:22.337Z,9.680965
2023-03-29T09:11:22.336Z,9.680963
2023-03-29T09:12:22.308Z,9.681000
2023-03-29T09:13:22.304Z,9.681004
2023-03-29T09:14:22.280Z,9.681027
2023-03-29T09:15:22.294Z,9.681026
2023-03-29T09:16:22.279Z,9.681015
2023-03-29T09:17:22.249Z,9.681032
2023-03-29T09:18:22.245Z,9.681057
2023-03-29T09:19:22.229Z,9.681006
2023-03-29T09:20:22.254Z,9.680973
2023-03-29T09:21:22.258Z,9.680994
2023-03-29T09:22:22.233Z,9.681085
2023-03-29T09:23:22.211Z,9.681087
2023-03-29T09:24:22.198Z,9.681072
2023-03-29T09:25:22.197Z,9.681077
2023-03-29T09:26:22.224Z,9.681067
2023-03-29T09:27:22.205Z,9.681065
2023-03-29T09:28:22.168Z,9.681049
2023-03-29T09:29:22.145Z,9.681010
2023-03-29T09:30:22.167Z,9.681050
2023-03-29T09:31:22.243Z,9.681057
2023-03-29T09:32:22.136Z,9.681037
2023-03-29T09:33:22.188Z,9.681016
2023-03-29T09:34:22.148Z,9.681047
2023-03-29T09:35:22.100Z,9.681048
2023-03-29T09:36:22.141Z,9.681059
2023-03-29T09:37:22.104Z,9.681023
2023-03-29T09:38:22.111Z,9.681032
2023-03-29T09:39:22.118Z,9.681034
2023-03-29T09:40:22.138Z,9.681045
2023-03-29T09:41:22.079Z,9.681042
2023-03-29T09:42:22.074Z,9.681046
2023-03-29T09:43:22.066Z,9.681038
2023-03-29T09:44:30.748Z,9.681045
2023-03-29T09:45:23.088Z,9.681014
2023-03-29T09:46:22.065Z,9.681046
2023-03-29T09:47:22.052Z,9.681014
2023-03-29T09:48:22.060Z,9.681007
2023-03-29T09:49:22.077Z,9.681050
2023-03-29T09:50:31.114Z,9.681073
2023-03-29T09:51:23.028Z,9.681084
2023-03-29T09:52:22.041Z,9.680996
2023-03-29T09:53:21.987Z,9.681041
2023-03-29T09:54:22.020Z,9.681047
2023-03-29T09:55:21.973Z,9.681057
2023-03-29T09:56:21.982Z,9.681047
2023-03-29T09:57:22.060Z,9.681082
2023-03-29T09:58:21.998Z,9.681065
2023-03-29T09:59:21.957Z,9.681001
2023-03-29T10:00:21.977Z,9.681084
2023-03-29T10:01:22.002Z,9.681100
2023-03-29T10:02:21.992Z,9.681084
2023-03-29T10:03:21.949Z,9.681033
2023-03-29T10:04:21.925Z,9.681055
2023-03-29T10:05:21.973Z,9.681028
2023-03-29T10:06:21.947Z,9.681026
2023-03-29T10:07:21.913Z,9.681066
2023-03-29T10:08:21.917Z,9.681069
2023-03-29T10:09:21.861Z,9.681062
2023-03-29T10:10:21.901Z,9.681082
2023-03-29T10:11:21.872Z,9.681053
2023-03-29T10:12:21.883Z,9.681076
2023-03-29T10:13:21.883Z,9.681041
2023-03-29T10:14:21.907Z,9.681065
2023-03-29T10:15:29.221Z,9.681142
2023-03-29T10:16:22.897Z,9.681148
2023-03-29T10:17:21.834Z,9.681141
2023-03-29T10:18:21.851Z,9.681115
2023-03-29T10:19:21.800Z,9.681069
2023-03-29T10:20:21.851Z,9.681071
2023-03-29T10:21:21.812Z,9.681074
2023-03-29T10:22:21.829Z,9.681102
2023-03-29T10:23:21.773Z,9.681076
2023-03-29T10:24:21.804Z,9.681043
2023-03-29T10:25:21.767Z,9.681066
2023-03-29T10:26:21.766Z,9.681091
2023-03-29T10:27:21.776Z,9.681077
2023-03-29T10:28:21.800Z,9.681069
2023-03-29T10:29:21.731Z,9.681052
2023-03-29T10:30:21.739Z,9.681038
2023-03-29T10:31:21.753Z,9.681010
2023-03-29T10:32:21.775Z,9.681021
2023-03-29T10:33:21.747Z,9.681109
2023-03-29T10:34:21.724Z,9.681104
2023-03-29T10:35:21.703Z,9.681104
2023-03-29T10:36:21.703Z,9.681108
2023-03-29T10:37:21.673Z,9.681176
2023-03-29T10:38:21.684Z,9.681108
2023-03-29T10:39:21.693Z,9.681079
2023-03-29T10:40:21.693Z,9.681015
2023-03-29T10:41:21.699Z,9.681006
2023-03-29T10:42:21.670Z,9.681086
2023-03-29T10:43:21.650Z,9.681017
2023-03-29T10:44:21.663Z,9.681134
2023-03-29T10:45:21.633Z,9.681082
2023-03-29T10:46:21.686Z,9.681103
2023-03-29T10:47:21.634Z,9.681131
2023-03-29T10:48:21.628Z,9.681107
2023-03-29T10:49:21.677Z,9.681115
2023-03-29T10:50:21.601Z,9.681056
2023-03-29T10:51:21.581Z,9.681035
2023-03-29T10:52:21.577Z,9.681040
2023-03-29T10:53:21.635Z,9.681079
2023-03-29T10:54:21.582Z,9.681075
2023-03-29T10:55:21.574Z,9.681075
2023-03-29T10:56:21.608Z,9.681097
2023-03-29T10:57:22.884Z,9.681139
2023-03-29T10:58:21.545Z,9.681064
2023-03-29T10:59:21.531Z,9.681060
2023-03-29T11:00:21.554Z,9.681015
2023-03-29T11:01:21.519Z,9.681123
2023-03-29T11:02:21.575Z,9.681107
2023-03-29T11:03:21.858Z,9.681118
2023-03-29T11:04:21.508Z,9.681089
2023-03-29T11:05:21.481Z,9.681083
2023-03-29T11:06:21.495Z,9.681081
2023-03-29T11:07:21.502Z,9.681064
2023-03-29T11:08:21.464Z,9.681066
2023-03-29T11:09:21.433Z,9.681046
2023-03-29T11:10:21.478Z,9.681074
2023-03-29T11:11:21.519Z,9.681073
2023-03-29T11:12:21.435Z,9.681112
2023-03-29T11:13:21.401Z,9.681103
2023-03-29T11:14:21.458Z,9.681107
2023-03-29T11:15:21.401Z,9.681075
2023-03-29T11:16:21.456Z,9.681092
2023-03-29T11:17:21.532Z,9.681076
2023-03-29T11:18:21.427Z,9.681052
2023-03-29T11:19:21.406Z,9.681141
2023-03-29T11:20:21.445Z,9.681147
2023-03-29T11:21:21.365Z,9.681085
2023-03-29T11:22:21.365Z,9.681036
2023-03-29T11:23:21.339Z,9.681100
2023-03-29T11:24:21.352Z,9.681183
2023-03-29T11:25:21.352Z,9.681096
2023-03-29T11:26:21.353Z,9.681158
2023-03-29T11:27:21.326Z,9.681045
2023-03-29T11:28:21.318Z,9.681182
2023-03-29T11:29:21.328Z,9.681178
2023-03-29T11:30:21.314Z,9.681288
2023-03-29T11:31:21.705Z,9.681252
2023-03-29T11:32:21.330Z,9.681178
2023-03-29T11:33:21.260Z,9.681091
2023-03-29T11:34:21.310Z,9.681198
2023-03-29T11:35:21.247Z,9.681106
2023-03-29T11:36:21.288Z,9.681119
2023-03-29T11:37:21.240Z,9.681068
2023-03-29T11:38:21.292Z,9.681068
2023-03-29T11:39:21.225Z,9.681084
2023-03-29T11:40:21.243Z,9.681059
2023-03-29T11:41:21.217Z,9.681036
2023-03-29T11:42:21.213Z,9.681047
2023-03-29T11:43:21.202Z,9.681064
2023-03-29T11:44:21.228Z,9.681040